sensor_id;sensor_type;location;lat;lon;timestamp;P1;durP1;ratioP1;P2;durP2;ratioP2
34134;SDS011;20410;55.578;12.968;2024-03-08T00:01:52;10.77;;;8.40;;
34134;SDS011;20410;55.578;12.968;2024-03-08T00:04:18;9.70;;;7.53;;
34134;SDS011;20410;55.578;12.968;2024-03-08T00:06:43;10.73;;;8.07;;
34134;SDS011;20410;55.578;12.968;2024-03-08T00:09:11;10.00;;;8.77;;
34134;SDS011;20410;55.578;12.968;2024-03-08T00:11:37;11.67;;;8.47;;
34134;SDS011;20410;55.578;12.968;2024-03-08T00:14:02;11.03;;;7.93;;
34134;SDS011;20410;55.578;12.968;2024-03-08T00:16:32;12.63;;;8.70;;
34134;SDS011;20410;55.578;12.968;2024-03-08T00:18:58;11.43;;;7.97;;
34134;SDS011;20410;55.578;12.968;2024-03-08T00:21:24;10.53;;;8.27;;
34134;SDS011;20410;55.578;12.968;2024-03-08T00:23:51;11.20;;;7.50;;
34134;SDS011;20410;55.578;12.968;2024-03-08T00:26:19;12.20;;;7.97;;
34134;SDS011;20410;55.578;12.968;2024-03-08T00:28:47;9.63;;;8.13;;
34134;SDS011;20410;55.578;12.968;2024-03-08T00:31:13;10.37;;;8.50;;
34134;SDS011;20410;55.578;12.968;2024-03-08T00:33:41;11.10;;;7.47;;
34134;SDS011;20410;55.578;12.968;2024-03-08T00:36:07;13.80;;;9.80;;
34134;SDS011;20410;55.578;12.968;2024-03-08T00:38:33;11.40;;;8.70;;
34134;SDS011;20410;55.578;12.968;2024-03-08T00:40:59;12.57;;;9.23;;
34134;SDS011;20410;55.578;12.968;2024-03-08T00:43:25;9.43;;;7.63;;
34134;SDS011;20410;55.578;12.968;2024-03-08T00:45:51;11.03;;;7.87;;
34134;SDS011;20410;55.578;12.968;2024-03-08T00:48:16;10.83;;;8.20;;
34134;SDS011;20410;55.578;12.968;2024-03-08T00:50:42;9.37;;;7.60;;
34134;SDS011;20410;55.578;12.968;2024-03-08T00:53:10;10.10;;;7.67;;
34134;SDS011;20410;55.578;12.968;2024-03-08T00:55:37;10.13;;;8.17;;
34134;SDS011;20410;55.578;12.968;2024-03-08T00:58:03;11.17;;;8.57;;
34134;SDS011;20410;55.578;12.968;2024-03-08T01:00:29;9.50;;;8.07;;
34134;SDS011;20410;55.578;12.968;2024-03-08T01:02:54;13.10;;;7.90;;
34134;SDS011;20410;55.578;12.968;2024-03-08T01:05:20;12.10;;;8.67;;
34134;SDS011;20410;55.578;12.968;2024-03-08T01:07:46;10.73;;;8.30;;
34134;SDS011;20410;55.578;12.968;2024-03-08T01:10:12;10.70;;;8.17;;
34134;SDS011;20410;55.578;12.968;2024-03-08T01:12:38;11.87;;;8.80;;
34134;SDS011;20410;55.578;12.968;2024-03-08T01:15:04;11.63;;;8.67;;
34134;SDS011;20410;55.578;12.968;2024-03-08T01:17:30;8.73;;;7.80;;
34134;SDS011;20410;55.578;12.968;2024-03-08T01:19:56;15.33;;;9.67;;
34134;SDS011;20410;55.578;12.968;2024-03-08T01:22:22;12.07;;;9.03;;
34134;SDS011;20410;55.578;12.968;2024-03-08T01:24:47;10.33;;;7.57;;
34134;SDS011;20410;55.578;12.968;2024-03-08T01:27:14;10.47;;;7.80;;
34134;SDS011;20410;55.578;12.968;2024-03-08T01:29:39;11.50;;;8.50;;
34134;SDS011;20410;55.578;12.968;2024-03-08T01:32:05;11.53;;;8.27;;
34134;SDS011;20410;55.578;12.968;2024-03-08T01:34:31;10.43;;;8.07;;
34134;SDS011;20410;55.578;12.968;2024-03-08T01:36:58;12.30;;;8.33;;
34134;SDS011;20410;55.578;12.968;2024-03-08T01:39:24;10.20;;;6.83;;
34134;SDS011;20410;55.578;12.968;2024-03-08T01:41:50;10.83;;;7.20;;
34134;SDS011;20410;55.578;12.968;2024-03-08T01:44:16;8.53;;;7.17;;
34134;SDS011;20410;55.578;12.968;2024-03-08T01:46:45;9.30;;;6.67;;
34134;SDS011;20410;55.578;12.968;2024-03-08T01:49:13;9.30;;;7.40;;
34134;SDS011;20410;55.578;12.968;2024-03-08T01:51:39;13.97;;;8.00;;
34134;SDS011;20410;55.578;12.968;2024-03-08T01:54:06;10.90;;;8.33;;
34134;SDS011;20410;55.578;12.968;2024-03-08T01:56:35;8.40;;;7.47;;
34134;SDS011;20410;55.578;12.968;2024-03-08T01:59:02;9.53;;;7.87;;
34134;SDS011;20410;55.578;12.968;2024-03-08T02:01:28;10.57;;;8.13;;
34134;SDS011;20410;55.578;12.968;2024-03-08T02:03:54;11.43;;;8.43;;
34134;SDS011;20410;55.578;12.968;2024-03-08T02:06:20;12.87;;;8.00;;
34134;SDS011;20410;55.578;12.968;2024-03-08T02:08:45;9.40;;;7.87;;
34134;SDS011;20410;55.578;12.968;2024-03-08T02:11:12;9.93;;;7.40;;
34134;SDS011;20410;55.578;12.968;2024-03-08T02:13:38;10.70;;;8.47;;
34134;SDS011;20410;55.578;12.968;2024-03-08T02:16:03;9.87;;;7.40;;
34134;SDS011;20410;55.578;12.968;2024-03-08T02:18:32;9.03;;;6.70;;
34134;SDS011;20410;55.578;12.968;2024-03-08T02:20:59;11.10;;;7.80;;
34134;SDS011;20410;55.578;12.968;2024-03-08T02:23:27;10.97;;;7.93;;
34134;SDS011;20410;55.578;12.968;2024-03-08T02:25:53;11.80;;;7.77;;
34134;SDS011;20410;55.578;12.968;2024-03-08T02:28:21;11.07;;;8.37;;
34134;SDS011;20410;55.578;12.968;2024-03-08T02:30:47;12.60;;;8.70;;
34134;SDS011;20410;55.578;12.968;2024-03-08T02:33:13;11.47;;;7.87;;
34134;SDS011;20410;55.578;12.968;2024-03-08T02:35:43;9.63;;;7.37;;
34134;SDS011;20410;55.578;12.968;2024-03-08T02:38:16;13.47;;;8.00;;
34134;SDS011;20410;55.578;12.968;2024-03-08T02:40:43;11.40;;;8.07;;
34134;SDS011;20410;55.578;12.968;2024-03-08T02:43:10;10.57;;;7.73;;
34134;SDS011;20410;55.578;12.968;2024-03-08T02:45:37;9.50;;;7.73;;
34134;SDS011;20410;55.578;12.968;2024-03-08T02:48:03;10.97;;;8.77;;
34134;SDS011;20410;55.578;12.968;2024-03-08T02:50:31;10.73;;;9.00;;
34134;SDS011;20410;55.578;12.968;2024-03-08T02:52:57;10.50;;;8.20;;
34134;SDS011;20410;55.578;12.968;2024-03-08T02:55:22;12.80;;;9.60;;
34134;SDS011;20410;55.578;12.968;2024-03-08T02:57:51;11.53;;;9.50;;
34134;SDS011;20410;55.578;12.968;2024-03-08T03:00:17;11.50;;;9.63;;
34134;SDS011;20410;55.578;12.968;2024-03-08T03:02:44;10.63;;;7.60;;
34134;SDS011;20410;55.578;12.968;2024-03-08T03:05:11;11.90;;;8.37;;
34134;SDS011;20410;55.578;12.968;2024-03-08T03:07:36;11.53;;;8.80;;
34134;SDS011;20410;55.578;12.968;2024-03-08T03:10:02;11.87;;;7.77;;
34134;SDS011;20410;55.578;12.968;2024-03-08T03:12:28;11.50;;;8.57;;
34134;SDS011;20410;55.578;12.968;2024-03-08T03:14:55;11.37;;;7.90;;
34134;SDS011;20410;55.578;12.968;2024-03-08T03:17:21;10.83;;;8.27;;
34134;SDS011;20410;55.578;12.968;2024-03-08T03:19:48;10.53;;;8.23;;
34134;SDS011;20410;55.578;12.968;2024-03-08T03:22:13;10.13;;;7.60;;
34134;SDS011;20410;55.578;12.968;2024-03-08T03:24:40;10.63;;;8.40;;
34134;SDS011;20410;55.578;12.968;2024-03-08T03:27:07;10.30;;;7.40;;
34134;SDS011;20410;55.578;12.968;2024-03-08T03:29:36;11.47;;;8.37;;
34134;SDS011;20410;55.578;12.968;2024-03-08T03:32:03;13.20;;;8.33;;
34134;SDS011;20410;55.578;12.968;2024-03-08T03:34:29;10.63;;;7.70;;
34134;SDS011;20410;55.578;12.968;2024-03-08T03:36:55;9.33;;;7.17;;
34134;SDS011;20410;55.578;12.968;2024-03-08T03:39:20;10.77;;;8.80;;
34134;SDS011;20410;55.578;12.968;2024-03-08T03:41:47;10.33;;;8.17;;
34134;SDS011;20410;55.578;12.968;2024-03-08T03:44:17;12.20;;;7.63;;
34134;SDS011;20410;55.578;12.968;2024-03-08T03:46:43;10.00;;;8.53;;
34134;SDS011;20410;55.578;12.968;2024-03-08T03:49:11;11.50;;;7.70;;
34134;SDS011;20410;55.578;12.968;2024-03-08T03:51:37;13.17;;;7.80;;
34134;SDS011;20410;55.578;12.968;2024-03-08T03:54:03;11.77;;;7.97;;
34134;SDS011;20410;55.578;12.968;2024-03-08T03:56:28;10.03;;;7.50;;
34134;SDS011;20410;55.578;12.968;2024-03-08T03:58:55;10.73;;;7.40;;
34134;SDS011;20410;55.578;12.968;2024-03-08T04:01:21;10.00;;;7.17;;
34134;SDS011;20410;55.578;12.968;2024-03-08T04:03:47;9.40;;;7.73;;
34134;SDS011;20410;55.578;12.968;2024-03-08T04:06:12;9.80;;;7.07;;
34134;SDS011;20410;55.578;12.968;2024-03-08T04:08:39;8.03;;;7.07;;
34134;SDS011;20410;55.578;12.968;2024-03-08T04:11:05;8.47;;;6.77;;
34134;SDS011;20410;55.578;12.968;2024-03-08T04:13:30;10.80;;;7.40;;
34134;SDS011;20410;55.578;12.968;2024-03-08T04:15:56;9.70;;;7.70;;
34134;SDS011;20410;55.578;12.968;2024-03-08T04:18:21;13.73;;;8.43;;
34134;SDS011;20410;55.578;12.968;2024-03-08T04:20:47;13.07;;;8.57;;
34134;SDS011;20410;55.578;12.968;2024-03-08T04:23:12;9.33;;;7.60;;
34134;SDS011;20410;55.578;12.968;2024-03-08T04:25:38;13.33;;;8.10;;
34134;SDS011;20410;55.578;12.968;2024-03-08T04:28:04;9.47;;;7.70;;
34134;SDS011;20410;55.578;12.968;2024-03-08T04:30:29;10.63;;;8.20;;
34134;SDS011;20410;55.578;12.968;2024-03-08T04:32:55;11.60;;;8.43;;
34134;SDS011;20410;55.578;12.968;2024-03-08T04:35:21;8.73;;;7.70;;
34134;SDS011;20410;55.578;12.968;2024-03-08T04:37:46;8.23;;;6.80;;
34134;SDS011;20410;55.578;12.968;2024-03-08T04:40:12;9.67;;;6.90;;
34134;SDS011;20410;55.578;12.968;2024-03-08T04:42:38;11.30;;;7.43;;
34134;SDS011;20410;55.578;12.968;2024-03-08T04:45:05;9.57;;;7.40;;
34134;SDS011;20410;55.578;12.968;2024-03-08T04:47:32;9.83;;;7.87;;
34134;SDS011;20410;55.578;12.968;2024-03-08T04:49:58;10.03;;;8.00;;
34134;SDS011;20410;55.578;12.968;2024-03-08T04:52:24;10.57;;;9.00;;
34134;SDS011;20410;55.578;12.968;2024-03-08T04:54:50;12.07;;;9.47;;
34134;SDS011;20410;55.578;12.968;2024-03-08T04:57:16;10.20;;;8.27;;
34134;SDS011;20410;55.578;12.968;2024-03-08T04:59:43;9.20;;;7.50;;
34134;SDS011;20410;55.578;12.968;2024-03-08T05:02:08;9.50;;;8.00;;
34134;SDS011;20410;55.578;12.968;2024-03-08T05:04:34;9.50;;;7.57;;
34134;SDS011;20410;55.578;12.968;2024-03-08T05:07:00;9.50;;;7.67;;
34134;SDS011;20410;55.578;12.968;2024-03-08T05:09:29;8.90;;;7.53;;
34134;SDS011;20410;55.578;12.968;2024-03-08T05:11:56;10.27;;;8.17;;
34134;SDS011;20410;55.578;12.968;2024-03-08T05:14:24;12.70;;;8.13;;
34134;SDS011;20410;55.578;12.968;2024-03-08T05:16:50;13.00;;;7.67;;
34134;SDS011;20410;55.578;12.968;2024-03-08T05:19:16;9.83;;;7.60;;
34134;SDS011;20410;55.578;12.968;2024-03-08T05:21:48;9.83;;;7.83;;
34134;SDS011;20410;55.578;12.968;2024-03-08T05:24:15;10.17;;;7.97;;
34134;SDS011;20410;55.578;12.968;2024-03-08T05:26:41;13.20;;;7.63;;
34134;SDS011;20410;55.578;12.968;2024-03-08T05:29:07;10.23;;;7.50;;
34134;SDS011;20410;55.578;12.968;2024-03-08T05:31:46;8.57;;;6.57;;
34134;SDS011;20410;55.578;12.968;2024-03-08T05:34:19;9.80;;;7.47;;
34134;SDS011;20410;55.578;12.968;2024-03-08T05:36:44;8.63;;;7.10;;
34134;SDS011;20410;55.578;12.968;2024-03-08T05:39:17;9.93;;;7.30;;
34134;SDS011;20410;55.578;12.968;2024-03-08T05:41:44;9.87;;;6.40;;
34134;SDS011;20410;55.578;12.968;2024-03-08T05:44:11;7.90;;;7.10;;
34134;SDS011;20410;55.578;12.968;2024-03-08T05:46:37;7.80;;;6.00;;
34134;SDS011;20410;55.578;12.968;2024-03-08T05:49:06;12.10;;;7.63;;
34134;SDS011;20410;55.578;12.968;2024-03-08T05:51:35;12.23;;;7.80;;
34134;SDS011;20410;55.578;12.968;2024-03-08T05:54:03;13.23;;;7.70;;
34134;SDS011;20410;55.578;12.968;2024-03-08T05:56:30;11.07;;;7.30;;
34134;SDS011;20410;55.578;12.968;2024-03-08T05:58:56;9.93;;;7.20;;
34134;SDS011;20410;55.578;12.968;2024-03-08T06:01:23;8.17;;;6.77;;
34134;SDS011;20410;55.578;12.968;2024-03-08T06:03:49;9.13;;;6.30;;
34134;SDS011;20410;55.578;12.968;2024-03-08T06:06:15;8.20;;;6.00;;
34134;SDS011;20410;55.578;12.968;2024-03-08T06:08:41;9.97;;;6.77;;
34134;SDS011;20410;55.578;12.968;2024-03-08T06:11:08;10.33;;;7.23;;
34134;SDS011;20410;55.578;12.968;2024-03-08T06:13:34;9.50;;;6.67;;
34134;SDS011;20410;55.578;12.968;2024-03-08T06:16:00;9.00;;;6.70;;
34134;SDS011;20410;55.578;12.968;2024-03-08T06:18:30;9.63;;;6.97;;
34134;SDS011;20410;55.578;12.968;2024-03-08T06:20:56;8.10;;;6.80;;
34134;SDS011;20410;55.578;12.968;2024-03-08T06:23:22;9.13;;;6.63;;
34134;SDS011;20410;55.578;12.968;2024-03-08T06:25:48;9.10;;;7.30;;
34134;SDS011;20410;55.578;12.968;2024-03-08T06:28:13;10.63;;;6.70;;
34134;SDS011;20410;55.578;12.968;2024-03-08T06:30:39;7.43;;;6.60;;
34134;SDS011;20410;55.578;12.968;2024-03-08T06:33:06;9.63;;;7.03;;
34134;SDS011;20410;55.578;12.968;2024-03-08T06:35:32;8.87;;;6.67;;
34134;SDS011;20410;55.578;12.968;2024-03-08T06:37:58;8.37;;;6.43;;
34134;SDS011;20410;55.578;12.968;2024-03-08T06:40:24;7.97;;;6.43;;
34134;SDS011;20410;55.578;12.968;2024-03-08T06:42:49;9.80;;;6.20;;
34134;SDS011;20410;55.578;12.968;2024-03-08T06:45:17;8.50;;;6.43;;
34134;SDS011;20410;55.578;12.968;2024-03-08T06:47:45;13.53;;;6.77;;
34134;SDS011;20410;55.578;12.968;2024-03-08T06:50:12;11.93;;;7.27;;
34134;SDS011;20410;55.578;12.968;2024-03-08T06:52:39;7.90;;;6.60;;
34134;SDS011;20410;55.578;12.968;2024-03-08T06:55:05;8.13;;;5.53;;
34134;SDS011;20410;55.578;12.968;2024-03-08T06:57:31;7.20;;;5.83;;
34134;SDS011;20410;55.578;12.968;2024-03-08T06:59:57;7.70;;;6.67;;
34134;SDS011;20410;55.578;12.968;2024-03-08T07:02:23;7.87;;;6.27;;
34134;SDS011;20410;55.578;12.968;2024-03-08T07:04:51;6.27;;;5.60;;
34134;SDS011;20410;55.578;12.968;2024-03-08T07:07:18;9.50;;;5.80;;
34134;SDS011;20410;55.578;12.968;2024-03-08T07:09:45;6.57;;;5.77;;
34134;SDS011;20410;55.578;12.968;2024-03-08T07:12:11;8.43;;;5.03;;
34134;SDS011;20410;55.578;12.968;2024-03-08T07:14:38;8.13;;;5.93;;
34134;SDS011;20410;55.578;12.968;2024-03-08T07:17:06;7.13;;;5.97;;
34134;SDS011;20410;55.578;12.968;2024-03-08T07:19:33;5.40;;;4.90;;
34134;SDS011;20410;55.578;12.968;2024-03-08T07:21:59;8.67;;;5.10;;
34134;SDS011;20410;55.578;12.968;2024-03-08T07:24:25;7.47;;;4.73;;
34134;SDS011;20410;55.578;12.968;2024-03-08T07:27:15;12.37;;;4.97;;
34134;SDS011;20410;55.578;12.968;2024-03-08T07:29:42;14.50;;;4.73;;
34134;SDS011;20410;55.578;12.968;2024-03-08T07:32:07;13.07;;;5.03;;
34134;SDS011;20410;55.578;12.968;2024-03-08T07:34:50;11.87;;;4.60;;
34134;SDS011;20410;55.578;12.968;2024-03-08T07:37:16;10.20;;;5.17;;
34134;SDS011;20410;55.578;12.968;2024-03-08T07:39:42;20.37;;;5.27;;
34134;SDS011;20410;55.578;12.968;2024-03-08T07:42:08;13.03;;;4.63;;
34134;SDS011;20410;55.578;12.968;2024-03-08T07:44:35;12.50;;;4.73;;
34134;SDS011;20410;55.578;12.968;2024-03-08T07:47:01;17.33;;;4.47;;
34134;SDS011;20410;55.578;12.968;2024-03-08T07:49:27;9.03;;;4.57;;
34134;SDS011;20410;55.578;12.968;2024-03-08T07:51:52;13.00;;;4.50;;
34134;SDS011;20410;55.578;12.968;2024-03-08T07:54:18;16.50;;;5.10;;
34134;SDS011;20410;55.578;12.968;2024-03-08T07:56:43;11.10;;;4.57;;
34134;SDS011;20410;55.578;12.968;2024-03-08T07:59:09;7.30;;;4.90;;
34134;SDS011;20410;55.578;12.968;2024-03-08T08:01:36;11.50;;;4.47;;
34134;SDS011;20410;55.578;12.968;2024-03-08T08:04:02;15.47;;;5.20;;
34134;SDS011;20410;55.578;12.968;2024-03-08T08:06:28;40.50;;;6.33;;
34134;SDS011;20410;55.578;12.968;2024-03-08T08:08:57;10.67;;;4.97;;
34134;SDS011;20410;55.578;12.968;2024-03-08T08:11:22;6.40;;;5.80;;
34134;SDS011;20410;55.578;12.968;2024-03-08T08:13:50;6.83;;;4.73;;
34134;SDS011;20410;55.578;12.968;2024-03-08T08:16:16;5.60;;;4.90;;
34134;SDS011;20410;55.578;12.968;2024-03-08T08:18:41;8.00;;;5.53;;
34134;SDS011;20410;55.578;12.968;2024-03-08T08:21:07;22.97;;;5.90;;
34134;SDS011;20410;55.578;12.968;2024-03-08T08:23:33;9.40;;;5.00;;
34134;SDS011;20410;55.578;12.968;2024-03-08T08:25:58;30.73;;;6.03;;
34134;SDS011;20410;55.578;12.968;2024-03-08T08:28:24;9.23;;;6.03;;
34134;SDS011;20410;55.578;12.968;2024-03-08T08:30:49;16.90;;;5.60;;
34134;SDS011;20410;55.578;12.968;2024-03-08T08:33:15;10.67;;;6.13;;
34134;SDS011;20410;55.578;12.968;2024-03-08T08:35:41;7.63;;;4.60;;
34134;SDS011;20410;55.578;12.968;2024-03-08T08:38:07;8.07;;;5.07;;
34134;SDS011;20410;55.578;12.968;2024-03-08T08:40:33;7.80;;;4.93;;
34134;SDS011;20410;55.578;12.968;2024-03-08T08:43:01;9.47;;;4.93;;
34134;SDS011;20410;55.578;12.968;2024-03-08T08:45:29;6.87;;;5.33;;
34134;SDS011;20410;55.578;12.968;2024-03-08T08:47:55;9.67;;;4.57;;
34134;SDS011;20410;55.578;12.968;2024-03-08T08:50:21;5.83;;;4.60;;
34134;SDS011;20410;55.578;12.968;2024-03-08T08:52:51;5.60;;;4.90;;
34134;SDS011;20410;55.578;12.968;2024-03-08T08:55:18;4.60;;;4.20;;
34134;SDS011;20410;55.578;12.968;2024-03-08T08:57:46;6.87;;;4.90;;
34134;SDS011;20410;55.578;12.968;2024-03-08T09:00:12;10.17;;;5.50;;
34134;SDS011;20410;55.578;12.968;2024-03-08T09:02:40;5.90;;;5.00;;
34134;SDS011;20410;55.578;12.968;2024-03-08T09:05:06;8.90;;;4.60;;
34134;SDS011;20410;55.578;12.968;2024-03-08T09:07:36;5.20;;;4.70;;
34134;SDS011;20410;55.578;12.968;2024-03-08T09:10:02;6.20;;;4.20;;
34134;SDS011;20410;55.578;12.968;2024-03-08T09:12:28;4.47;;;4.07;;
34134;SDS011;20410;55.578;12.968;2024-03-08T09:14:54;8.90;;;5.27;;
34134;SDS011;20410;55.578;12.968;2024-03-08T09:17:20;6.07;;;5.30;;
34134;SDS011;20410;55.578;12.968;2024-03-08T09:19:49;7.63;;;4.63;;
34134;SDS011;20410;55.578;12.968;2024-03-08T09:22:15;5.60;;;4.50;;
34134;SDS011;20410;55.578;12.968;2024-03-08T09:24:41;6.07;;;4.63;;
34134;SDS011;20410;55.578;12.968;2024-03-08T09:27:08;5.20;;;3.90;;
34134;SDS011;20410;55.578;12.968;2024-03-08T09:29:34;4.20;;;3.60;;
34134;SDS011;20410;55.578;12.968;2024-03-08T09:32:00;8.60;;;4.90;;
34134;SDS011;20410;55.578;12.968;2024-03-08T09:34:26;4.93;;;4.07;;
34134;SDS011;20410;55.578;12.968;2024-03-08T09:36:52;4.63;;;4.23;;
34134;SDS011;20410;55.578;12.968;2024-03-08T09:39:17;3.33;;;3.10;;
34134;SDS011;20410;55.578;12.968;2024-03-08T09:41:45;3.80;;;3.40;;
34134;SDS011;20410;55.578;12.968;2024-03-08T09:44:14;8.27;;;4.60;;
34134;SDS011;20410;55.578;12.968;2024-03-08T09:46:41;5.33;;;4.83;;
34134;SDS011;20410;55.578;12.968;2024-03-08T09:49:07;7.27;;;4.00;;
34134;SDS011;20410;55.578;12.968;2024-03-08T09:51:33;4.97;;;4.00;;
34134;SDS011;20410;55.578;12.968;2024-03-08T09:54:05;4.47;;;3.70;;
34134;SDS011;20410;55.578;12.968;2024-03-08T09:56:34;5.43;;;4.67;;
34134;SDS011;20410;55.578;12.968;2024-03-08T09:59:01;5.90;;;4.83;;
34134;SDS011;20410;55.578;12.968;2024-03-08T10:01:50;7.43;;;4.47;;
34134;SDS011;20410;55.578;12.968;2024-03-08T10:04:17;7.13;;;4.33;;
34134;SDS011;20410;55.578;12.968;2024-03-08T10:06:43;6.07;;;4.67;;
34134;SDS011;20410;55.578;12.968;2024-03-08T10:09:12;6.43;;;4.57;;
34134;SDS011;20410;55.578;12.968;2024-03-08T10:11:37;5.67;;;5.07;;
34134;SDS011;20410;55.578;12.968;2024-03-08T10:14:04;6.10;;;5.30;;
34134;SDS011;20410;55.578;12.968;2024-03-08T10:16:33;4.50;;;4.10;;
34134;SDS011;20410;55.578;12.968;2024-03-08T10:19:07;4.60;;;4.20;;
34134;SDS011;20410;55.578;12.968;2024-03-08T10:21:51;4.50;;;4.10;;
34134;SDS011;20410;55.578;12.968;2024-03-08T10:24:22;4.73;;;4.30;;
34134;SDS011;20410;55.578;12.968;2024-03-08T10:27:01;4.57;;;4.13;;
34134;SDS011;20410;55.578;12.968;2024-03-08T10:29:38;5.43;;;4.37;;
34134;SDS011;20410;55.578;12.968;2024-03-08T10:32:16;7.73;;;4.63;;
34134;SDS011;20410;55.578;12.968;2024-03-08T10:34:45;4.87;;;4.40;;
34134;SDS011;20410;55.578;12.968;2024-03-08T10:37:15;5.57;;;4.23;;
34134;SDS011;20410;55.578;12.968;2024-03-08T10:39:53;5.30;;;4.27;;
34134;SDS011;20410;55.578;12.968;2024-03-08T10:42:35;4.20;;;3.80;;
34134;SDS011;20410;55.578;12.968;2024-03-08T10:45:10;7.03;;;4.57;;
34134;SDS011;20410;55.578;12.968;2024-03-08T10:47:46;6.40;;;5.10;;
34134;SDS011;20410;55.578;12.968;2024-03-08T10:50:20;5.00;;;4.60;;
34134;SDS011;20410;55.578;12.968;2024-03-08T10:52:50;6.90;;;5.17;;
34134;SDS011;20410;55.578;12.968;2024-03-08T10:55:19;5.80;;;4.50;;
34134;SDS011;20410;55.578;12.968;2024-03-08T10:57:48;6.43;;;5.10;;
34134;SDS011;20410;55.578;12.968;2024-03-08T11:00:14;5.50;;;5.00;;
34134;SDS011;20410;55.578;12.968;2024-03-08T11:02:50;6.57;;;5.23;;
34134;SDS011;20410;55.578;12.968;2024-03-08T11:08:03;6.73;;;5.80;;
34134;SDS011;20410;55.578;12.968;2024-03-08T11:10:49;6.87;;;5.13;;
34134;SDS011;20410;55.578;12.968;2024-03-08T11:13:34;6.17;;;5.37;;
34134;SDS011;20410;55.578;12.968;2024-03-08T11:16:01;4.87;;;4.47;;
34134;SDS011;20410;55.578;12.968;2024-03-08T11:18:35;7.67;;;5.07;;
34134;SDS011;20410;55.578;12.968;2024-03-08T11:21:04;5.40;;;4.73;;
34134;SDS011;20410;55.578;12.968;2024-03-08T11:23:37;5.30;;;4.80;;
34134;SDS011;20410;55.578;12.968;2024-03-08T11:26:05;7.50;;;5.10;;
34134;SDS011;20410;55.578;12.968;2024-03-08T11:28:45;6.07;;;4.93;;
34134;SDS011;20410;55.578;12.968;2024-03-08T11:33:39;5.50;;;4.90;;
34134;SDS011;20410;55.578;12.968;2024-03-08T11:36:13;4.83;;;4.40;;
34134;SDS011;20410;55.578;12.968;2024-03-08T11:38:48;6.20;;;5.60;;
34134;SDS011;20410;55.578;12.968;2024-03-08T11:41:20;6.90;;;5.30;;
34134;SDS011;20410;55.578;12.968;2024-03-08T11:43:52;5.10;;;4.70;;
34134;SDS011;20410;55.578;12.968;2024-03-08T11:46:42;5.20;;;4.70;;
34134;SDS011;20410;55.578;12.968;2024-03-08T11:49:14;5.83;;;4.90;;
34134;SDS011;20410;55.578;12.968;2024-03-08T11:51:42;5.70;;;4.87;;
34134;SDS011;20410;55.578;12.968;2024-03-08T11:58:16;5.13;;;4.40;;
34134;SDS011;20410;55.578;12.968;2024-03-08T12:04:45;4.80;;;4.30;;
34134;SDS011;20410;55.578;12.968;2024-03-08T12:07:21;5.53;;;4.60;;
34134;SDS011;20410;55.578;12.968;2024-03-08T12:30:53;5.93;;;5.17;;
34134;SDS011;20410;55.578;12.968;2024-03-08T12:33:21;6.30;;;5.70;;
34134;SDS011;20410;55.578;12.968;2024-03-08T12:35:50;6.43;;;5.10;;
34134;SDS011;20410;55.578;12.968;2024-03-08T12:38:18;5.70;;;5.10;;
34134;SDS011;20410;55.578;12.968;2024-03-08T12:40:59;6.07;;;4.83;;
34134;SDS011;20410;55.578;12.968;2024-03-08T12:43:25;5.50;;;4.93;;
34134;SDS011;20410;55.578;12.968;2024-03-08T12:45:51;7.97;;;4.93;;
34134;SDS011;20410;55.578;12.968;2024-03-08T12:48:17;6.30;;;5.70;;
34134;SDS011;20410;55.578;12.968;2024-03-08T12:50:48;9.33;;;5.77;;
34134;SDS011;20410;55.578;12.968;2024-03-08T12:53:19;6.20;;;5.20;;
34134;SDS011;20410;55.578;12.968;2024-03-08T12:55:55;5.97;;;5.17;;
34134;SDS011;20410;55.578;12.968;2024-03-08T12:58:59;5.83;;;5.23;;
34134;SDS011;20410;55.578;12.968;2024-03-08T13:02:02;6.33;;;4.50;;
34134;SDS011;20410;55.578;12.968;2024-03-08T13:04:42;5.47;;;4.70;;
34134;SDS011;20410;55.578;12.968;2024-03-08T13:07:07;6.00;;;5.27;;
34134;SDS011;20410;55.578;12.968;2024-03-08T13:09:51;5.87;;;5.27;;
34134;SDS011;20410;55.578;12.968;2024-03-08T13:12:18;5.53;;;5.00;;
34134;SDS011;20410;55.578;12.968;2024-03-08T13:14:45;5.63;;;4.80;;
34134;SDS011;20410;55.578;12.968;2024-03-08T13:17:11;5.53;;;4.77;;
34134;SDS011;20410;55.578;12.968;2024-03-08T13:19:38;7.27;;;4.90;;
34134;SDS011;20410;55.578;12.968;2024-03-08T13:22:11;6.47;;;5.00;;
34134;SDS011;20410;55.578;12.968;2024-03-08T13:24:41;5.27;;;4.37;;
34134;SDS011;20410;55.578;12.968;2024-03-08T13:27:10;5.77;;;5.00;;
34134;SDS011;20410;55.578;12.968;2024-03-08T13:29:45;5.43;;;4.13;;
34134;SDS011;20410;55.578;12.968;2024-03-08T13:32:12;9.13;;;4.60;;
34134;SDS011;20410;55.578;12.968;2024-03-08T13:34:44;7.27;;;4.67;;
34134;SDS011;20410;55.578;12.968;2024-03-08T13:37:10;5.60;;;4.53;;
34134;SDS011;20410;55.578;12.968;2024-03-08T13:39:36;6.13;;;4.60;;
34134;SDS011;20410;55.578;12.968;2024-03-08T13:42:17;7.30;;;4.23;;
34134;SDS011;20410;55.578;12.968;2024-03-08T13:44:44;6.13;;;4.50;;
34134;SDS011;20410;55.578;12.968;2024-03-08T13:47:11;5.00;;;4.27;;
34134;SDS011;20410;55.578;12.968;2024-03-08T13:49:38;5.63;;;4.10;;
34134;SDS011;20410;55.578;12.968;2024-03-08T13:52:04;4.93;;;4.07;;
34134;SDS011;20410;55.578;12.968;2024-03-08T13:54:30;4.60;;;4.13;;
34134;SDS011;20410;55.578;12.968;2024-03-08T13:56:56;4.30;;;3.83;;
34134;SDS011;20410;55.578;12.968;2024-03-08T13:59:23;6.00;;;3.93;;
34134;SDS011;20410;55.578;12.968;2024-03-08T14:01:49;5.37;;;3.90;;
34134;SDS011;20410;55.578;12.968;2024-03-08T14:04:15;7.33;;;3.77;;
34134;SDS011;20410;55.578;12.968;2024-03-08T14:06:43;3.53;;;3.20;;
34134;SDS011;20410;55.578;12.968;2024-03-08T14:09:12;4.73;;;3.70;;
34134;SDS011;20410;55.578;12.968;2024-03-08T14:11:45;6.00;;;3.33;;
34134;SDS011;20410;55.578;12.968;2024-03-08T14:14:11;6.80;;;3.60;;
34134;SDS011;20410;55.578;12.968;2024-03-08T14:16:38;4.57;;;3.30;;
34134;SDS011;20410;55.578;12.968;2024-03-08T14:19:04;3.60;;;3.20;;
34134;SDS011;20410;55.578;12.968;2024-03-08T14:21:31;5.90;;;3.40;;
34134;SDS011;20410;55.578;12.968;2024-03-08T14:23:57;5.47;;;3.30;;
34134;SDS011;20410;55.578;12.968;2024-03-08T14:26:22;5.43;;;3.63;;
34134;SDS011;20410;55.578;12.968;2024-03-08T14:28:48;5.20;;;3.47;;
34134;SDS011;20410;55.578;12.968;2024-03-08T14:31:19;3.20;;;2.90;;
34134;SDS011;20410;55.578;12.968;2024-03-08T14:33:53;7.07;;;2.90;;
34134;SDS011;20410;55.578;12.968;2024-03-08T14:39:33;3.57;;;3.13;;
34134;SDS011;20410;55.578;12.968;2024-03-08T14:41:59;5.53;;;3.17;;
34134;SDS011;20410;55.578;12.968;2024-03-08T14:44:35;3.70;;;2.90;;
34134;SDS011;20410;55.578;12.968;2024-03-08T14:47:03;5.93;;;3.23;;
34134;SDS011;20410;55.578;12.968;2024-03-08T14:49:30;5.77;;;3.03;;
34134;SDS011;20410;55.578;12.968;2024-03-08T14:51:59;3.23;;;2.40;;
34134;SDS011;20410;55.578;12.968;2024-03-08T14:54:27;4.00;;;2.60;;
34134;SDS011;20410;55.578;12.968;2024-03-08T15:00:31;3.30;;;2.37;;
34134;SDS011;20410;55.578;12.968;2024-03-08T15:02:58;3.87;;;2.30;;
34134;SDS011;20410;55.578;12.968;2024-03-08T15:05:25;4.90;;;2.23;;
34134;SDS011;20410;55.578;12.968;2024-03-08T15:07:53;2.40;;;2.20;;
34134;SDS011;20410;55.578;12.968;2024-03-08T15:10:37;3.37;;;2.10;;
34134;SDS011;20410;55.578;12.968;2024-03-08T15:13:09;2.83;;;2.20;;
34134;SDS011;20410;55.578;12.968;2024-03-08T15:15:55;3.57;;;1.83;;
34134;SDS011;20410;55.578;12.968;2024-03-08T15:18:24;3.53;;;2.30;;